Moosic, Pennsylvania
Current Conditions -  °F | °C
As of 5:54 PM on Tuesday 21 Oct 2014 (Local Time) from KAVP Reporting Station
Overcast Overcast  
Wind Chill: 58°   Ceiling: 2600
Heat Index: 58°   Visibility: 10mi
Dew Point: 48°   Wind: 8mph
Humidity: 70%   Direction: 30°NNE
Pressure: 29.86"   Gusts: NA
Location:  41.35°N, 75.73°W
Report Text: KAVP 212154Z 03007KT 10SM BKN026 OVC036 14/09 A2986 RMK AO2 SLP110 T01440089
Loading
Personal Weather Stations






























Interactive Weather Map
Tropical Storm Tracking
New forecast layout! Learn more

10-Day Weather Forecast

Advertisements
Track Severe Weather on mobile